AAL771 KPHL-KRDU
Flight info
| Callsign | AAL771 |
|---|---|
| Flight time | 0h 58m |
| Altitude | 32000 |
| Route | OOD TEBEE HAYDO TRPOD TAQLE3 |
| Aircraft | B38M/M-SDE1FGHILORVWXY/HB1 |
Departure
| Time | 2026-05-06 01:04 |
|---|---|
| Airport | Philadelphia International Airport (KPHL) |
Arrival
| Time | 2026-05-06 02:02 |
|---|---|
| Airport | Raleigh-Durham International Airport (KRDU) |
| Time | Latitude | Longitude | Altitude | Speed | Heading |
|---|---|---|---|---|---|
| 2026-05-06 00:47 | 39.87429 | -75.24439 | 33 ft | 0 kts | 116° |
| 2026-05-06 00:57 | 39.87432 | -75.24448 | 28 ft | 4 kts | 116° |
| 2026-05-06 00:57 | 39.87445 | -75.24480 | 28 ft | 4 kts | 118° |
| 2026-05-06 00:57 | 39.87458 | -75.24510 | 28 ft | 4 kts | 124° |
| 2026-05-06 00:57 | 39.87476 | -75.24535 | 28 ft | 4 kts | 151° |
| 2026-05-06 00:58 | 39.87492 | -75.24539 | 28 ft | 0 kts | 196° |
| 2026-05-06 01:00 | 39.87491 | -75.24539 | 28 ft | 1 kts | 196° |
| 2026-05-06 01:00 | 39.87475 | -75.24545 | 28 ft | 6 kts | 196° |
| 2026-05-06 01:00 | 39.87400 | -75.24568 | 28 ft | 15 kts | 184° |
| 2026-05-06 01:00 | 39.87307 | -75.24547 | 28 ft | 14 kts | 156° |
| 2026-05-06 01:01 | 39.87281 | -75.24433 | 28 ft | 15 kts | 77° |
| 2026-05-06 01:01 | 39.87309 | -75.24285 | 28 ft | 18 kts | 79° |
| 2026-05-06 01:01 | 39.87255 | -75.24167 | 28 ft | 16 kts | 153° |
| 2026-05-06 01:01 | 39.87152 | -75.24103 | 28 ft | 17 kts | 161° |
| 2026-05-06 01:02 | 39.87027 | -75.24057 | 28 ft | 20 kts | 166° |
| 2026-05-06 01:02 | 39.86914 | -75.23978 | 28 ft | 19 kts | 110° |
| 2026-05-06 01:02 | 39.86937 | -75.23812 | 28 ft | 19 kts | 76° |
| 2026-05-06 01:02 | 39.86968 | -75.23642 | 28 ft | 19 kts | 75° |
| 2026-05-06 01:03 | 39.86999 | -75.23485 | 28 ft | 15 kts | 82° |
| 2026-05-06 01:03 | 39.86964 | -75.23416 | 28 ft | 9 kts | 159° |
| 2026-05-06 01:03 | 39.86905 | -75.23426 | 28 ft | 11 kts | 229° |
| 2026-05-06 01:03 | 39.86865 | -75.23592 | 28 ft | 42 kts | 255° |
| 2026-05-06 01:04 | 39.86711 | -75.24342 | 28 ft | 126 kts | 255° |
| 2026-05-06 01:04 | 39.86453 | -75.25751 | 148 ft | 185 kts | 255° |
| 2026-05-06 01:04 | 39.86214 | -75.27456 | 1032 ft | 195 kts | 252° |
| 2026-05-06 01:04 | 39.85976 | -75.29198 | 2222 ft | 202 kts | 253° |
| 2026-05-06 01:05 | 39.85729 | -75.31031 | 3223 ft | 205 kts | 253° |
| 2026-05-06 01:05 | 39.85185 | -75.32739 | 4229 ft | 208 kts | 231° |
| 2026-05-06 01:05 | 39.84072 | -75.33972 | 5198 ft | 220 kts | 212° |
| 2026-05-06 01:05 | 39.82545 | -75.34620 | 5924 ft | 246 kts | 191° |
| 2026-05-06 01:06 | 39.80791 | -75.34360 | 6872 ft | 260 kts | 173° |
| 2026-05-06 01:06 | 39.78993 | -75.33876 | 7782 ft | 268 kts | 175° |
| 2026-05-06 01:06 | 39.77128 | -75.33424 | 8666 ft | 276 kts | 175° |
| 2026-05-06 01:06 | 39.75215 | -75.32970 | 9592 ft | 283 kts | 174° |
| 2026-05-06 01:07 | 39.73243 | -75.32513 | 10376 ft | 293 kts | 175° |
| 2026-05-06 01:07 | 39.71172 | -75.32044 | 10898 ft | 311 kts | 174° |
| 2026-05-06 01:07 | 39.68991 | -75.31548 | 11527 ft | 324 kts | 174° |
| 2026-05-06 01:07 | 39.66766 | -75.31036 | 12451 ft | 325 kts | 174° |
| 2026-05-06 01:08 | 39.64525 | -75.30523 | 13310 ft | 329 kts | 176° |
| 2026-05-06 01:08 | 39.62267 | -75.30580 | 14130 ft | 324 kts | 192° |
| 2026-05-06 01:08 | 39.60012 | -75.30982 | 14865 ft | 329 kts | 191° |
| 2026-05-06 01:08 | 39.57734 | -75.31380 | 15643 ft | 331 kts | 191° |
| 2026-05-06 01:09 | 39.55471 | -75.31783 | 16379 ft | 334 kts | 191° |
| 2026-05-06 01:09 | 39.53157 | -75.32199 | 17136 ft | 337 kts | 191° |
| 2026-05-06 01:09 | 39.50823 | -75.32620 | 17865 ft | 340 kts | 191° |
| 2026-05-06 01:09 | 39.48472 | -75.33046 | 18535 ft | 343 kts | 191° |
| 2026-05-06 01:10 | 39.46099 | -75.33476 | 19137 ft | 346 kts | 191° |
| 2026-05-06 01:10 | 39.43701 | -75.33909 | 19720 ft | 349 kts | 192° |
| 2026-05-06 01:10 | 39.41286 | -75.34345 | 20312 ft | 352 kts | 192° |
| 2026-05-06 01:10 | 39.38845 | -75.34722 | 20898 ft | 356 kts | 189° |
| 2026-05-06 01:11 | 39.36365 | -75.34965 | 21458 ft | 359 kts | 188° |
| 2026-05-06 01:11 | 39.33858 | -75.35190 | 22025 ft | 363 kts | 188° |
| 2026-05-06 01:11 | 39.31331 | -75.35411 | 22565 ft | 366 kts | 188° |
| 2026-05-06 01:11 | 39.28782 | -75.35626 | 23099 ft | 369 kts | 188° |
| 2026-05-06 01:12 | 39.26205 | -75.35838 | 23610 ft | 372 kts | 188° |
| 2026-05-06 01:12 | 39.23614 | -75.36046 | 24044 ft | 375 kts | 188° |
| 2026-05-06 01:12 | 39.20994 | -75.36258 | 24442 ft | 379 kts | 188° |
| 2026-05-06 01:12 | 39.18344 | -75.36472 | 24853 ft | 383 kts | 188° |
| 2026-05-06 01:13 | 39.15673 | -75.36688 | 25248 ft | 386 kts | 188° |
| 2026-05-06 01:13 | 39.12980 | -75.36906 | 25641 ft | 390 kts | 188° |
| 2026-05-06 01:13 | 39.10259 | -75.37126 | 26028 ft | 393 kts | 188° |
| 2026-05-06 01:13 | 39.07514 | -75.37349 | 26418 ft | 397 kts | 188° |
| 2026-05-06 01:14 | 39.01960 | -75.37802 | 27171 ft | 403 kts | 188° |
| 2026-05-06 01:14 | 38.99154 | -75.38080 | 27530 ft | 404 kts | 193° |
| 2026-05-06 01:14 | 38.96503 | -75.39141 | 27855 ft | 398 kts | 211° |
| 2026-05-06 01:15 | 38.94088 | -75.40886 | 28169 ft | 401 kts | 212° |
| 2026-05-06 01:15 | 38.91610 | -75.42560 | 28499 ft | 405 kts | 211° |
| 2026-05-06 01:15 | 38.89106 | -75.44233 | 28905 ft | 407 kts | 211° |
| 2026-05-06 01:15 | 38.86573 | -75.45915 | 29241 ft | 411 kts | 211° |
| 2026-05-06 01:16 | 38.84023 | -75.47604 | 29577 ft | 414 kts | 211° |
| 2026-05-06 01:16 | 38.81459 | -75.49300 | 29936 ft | 416 kts | 211° |
| 2026-05-06 01:16 | 38.78885 | -75.51002 | 30322 ft | 416 kts | 211° |
| 2026-05-06 01:16 | 38.76309 | -75.52704 | 30698 ft | 416 kts | 212° |
| 2026-05-06 01:17 | 38.73734 | -75.54404 | 31080 ft | 416 kts | 212° |
| 2026-05-06 01:17 | 38.71165 | -75.56098 | 31468 ft | 416 kts | 212° |
| 2026-05-06 01:17 | 38.68596 | -75.57791 | 31842 ft | 416 kts | 212° |
| 2026-05-06 01:17 | 38.66016 | -75.59489 | 31989 ft | 417 kts | 212° |
| 2026-05-06 01:18 | 38.60883 | -75.62864 | 31986 ft | 414 kts | 212° |
| 2026-05-06 01:18 | 38.55755 | -75.66228 | 31980 ft | 414 kts | 212° |
| 2026-05-06 01:19 | 38.50658 | -75.69568 | 31988 ft | 414 kts | 212° |
| 2026-05-06 01:19 | 38.45492 | -75.72946 | 31994 ft | 415 kts | 212° |
| 2026-05-06 01:20 | 38.40389 | -75.76280 | 31983 ft | 415 kts | 212° |
| 2026-05-06 01:20 | 38.35248 | -75.79632 | 31988 ft | 415 kts | 212° |
| 2026-05-06 01:21 | 38.30107 | -75.82979 | 31983 ft | 415 kts | 212° |
| 2026-05-06 01:21 | 38.24951 | -75.86330 | 31983 ft | 416 kts | 212° |
| 2026-05-06 01:22 | 38.19797 | -75.89673 | 31980 ft | 416 kts | 212° |
| 2026-05-06 01:22 | 38.17182 | -75.91368 | 31870 ft | 416 kts | 212° |
| 2026-05-06 01:22 | 38.14636 | -75.93017 | 31691 ft | 416 kts | 212° |
| 2026-05-06 01:23 | 38.12055 | -75.94687 | 31481 ft | 416 kts | 212° |
| 2026-05-06 01:23 | 38.09472 | -75.96357 | 31279 ft | 417 kts | 212° |
| 2026-05-06 01:23 | 38.06887 | -75.98027 | 31080 ft | 417 kts | 212° |
| 2026-05-06 01:23 | 38.04298 | -75.99697 | 30880 ft | 418 kts | 212° |
| 2026-05-06 01:24 | 38.01674 | -76.01390 | 30680 ft | 418 kts | 212° |
| 2026-05-06 01:24 | 37.99113 | -76.03040 | 30483 ft | 418 kts | 212° |
| 2026-05-06 01:24 | 37.96516 | -76.04712 | 30285 ft | 419 kts | 212° |
| 2026-05-06 01:24 | 37.93918 | -76.06383 | 30087 ft | 419 kts | 212° |
| 2026-05-06 01:25 | 37.91318 | -76.08055 | 29858 ft | 419 kts | 212° |
| 2026-05-06 01:25 | 37.88716 | -76.09726 | 29630 ft | 419 kts | 212° |
| 2026-05-06 01:25 | 37.86115 | -76.11396 | 29403 ft | 419 kts | 212° |
| 2026-05-06 01:25 | 37.83514 | -76.13065 | 29178 ft | 419 kts | 212° |
| 2026-05-06 01:26 | 37.80911 | -76.14732 | 28950 ft | 419 kts | 212° |
| 2026-05-06 01:26 | 37.78306 | -76.16401 | 28733 ft | 419 kts | 212° |
| 2026-05-06 01:26 | 37.75707 | -76.18064 | 28500 ft | 419 kts | 212° |
| 2026-05-06 01:26 | 37.73102 | -76.19729 | 28288 ft | 419 kts | 211° |
| 2026-05-06 01:27 | 37.70504 | -76.21389 | 28073 ft | 419 kts | 211° |
| 2026-05-06 01:27 | 37.67901 | -76.23050 | 27858 ft | 419 kts | 211° |
| 2026-05-06 01:27 | 37.65297 | -76.24712 | 27641 ft | 419 kts | 211° |
| 2026-05-06 01:27 | 37.62688 | -76.26375 | 27425 ft | 419 kts | 211° |
| 2026-05-06 01:28 | 37.60086 | -76.28032 | 27220 ft | 419 kts | 211° |
| 2026-05-06 01:28 | 37.57481 | -76.29689 | 27008 ft | 420 kts | 211° |
| 2026-05-06 01:28 | 37.54873 | -76.31348 | 26801 ft | 420 kts | 211° |
| 2026-05-06 01:28 | 37.52265 | -76.33005 | 26598 ft | 420 kts | 211° |
| 2026-05-06 01:29 | 37.49655 | -76.34662 | 26392 ft | 420 kts | 211° |
| 2026-05-06 01:29 | 37.47045 | -76.36318 | 26200 ft | 420 kts | 211° |
| 2026-05-06 01:29 | 37.44430 | -76.37976 | 25996 ft | 421 kts | 211° |
| 2026-05-06 01:29 | 37.41819 | -76.39630 | 25804 ft | 421 kts | 211° |
| 2026-05-06 01:30 | 37.39209 | -76.41282 | 25609 ft | 420 kts | 211° |
| 2026-05-06 01:30 | 37.36606 | -76.42928 | 25418 ft | 418 kts | 211° |
| 2026-05-06 01:30 | 37.34010 | -76.44569 | 25222 ft | 416 kts | 210° |
| 2026-05-06 01:30 | 37.31448 | -76.46186 | 24759 ft | 410 kts | 210° |
| 2026-05-06 01:31 | 37.28918 | -76.47783 | 24296 ft | 405 kts | 210° |
| 2026-05-06 01:31 | 37.26497 | -76.49483 | 24048 ft | 390 kts | 220° |
| 2026-05-06 01:31 | 37.24668 | -76.51861 | 23971 ft | 370 kts | 234° |
| 2026-05-06 01:31 | 37.23094 | -76.54340 | 23918 ft | 357 kts | 233° |
| 2026-05-06 01:32 | 37.21562 | -76.56713 | 23852 ft | 344 kts | 233° |
| 2026-05-06 01:32 | 37.20089 | -76.59005 | 23801 ft | 331 kts | 233° |
| 2026-05-06 01:32 | 37.18670 | -76.61215 | 23746 ft | 321 kts | 233° |
| 2026-05-06 01:32 | 37.17270 | -76.63396 | 23693 ft | 321 kts | 233° |
| 2026-05-06 01:33 | 37.15871 | -76.65574 | 23642 ft | 321 kts | 233° |
| 2026-05-06 01:33 | 37.14471 | -76.67751 | 23588 ft | 320 kts | 233° |
| 2026-05-06 01:33 | 37.13074 | -76.69924 | 23527 ft | 320 kts | 233° |
| 2026-05-06 01:33 | 37.12150 | -76.71361 | 23493 ft | 320 kts | 233° |
| 2026-05-06 01:34 | 37.10752 | -76.73531 | 23445 ft | 320 kts | 233° |
| 2026-05-06 01:34 | 37.09352 | -76.75705 | 23391 ft | 320 kts | 234° |
| 2026-05-06 01:34 | 37.07953 | -76.77875 | 23335 ft | 320 kts | 234° |
| 2026-05-06 01:34 | 37.06101 | -76.80746 | 23284 ft | 320 kts | 234° |
| 2026-05-06 01:35 | 37.04701 | -76.82915 | 23236 ft | 320 kts | 234° |
| 2026-05-06 01:35 | 37.03754 | -76.84381 | 23202 ft | 320 kts | 234° |
| 2026-05-06 01:35 | 37.02354 | -76.86548 | 23154 ft | 320 kts | 234° |
| 2026-05-06 01:35 | 37.00952 | -76.88716 | 23104 ft | 320 kts | 234° |
| 2026-05-06 01:36 | 36.99549 | -76.90883 | 23050 ft | 320 kts | 234° |
| 2026-05-06 01:36 | 36.98150 | -76.93042 | 22974 ft | 321 kts | 234° |
| 2026-05-06 01:36 | 36.96746 | -76.95205 | 22704 ft | 319 kts | 234° |
| 2026-05-06 01:36 | 36.95369 | -76.97326 | 22487 ft | 318 kts | 234° |
| 2026-05-06 01:37 | 36.93975 | -76.99469 | 22253 ft | 317 kts | 234° |
| 2026-05-06 01:37 | 36.92587 | -77.01605 | 22015 ft | 316 kts | 234° |
| 2026-05-06 01:37 | 36.91202 | -77.03733 | 21777 ft | 315 kts | 233° |
| 2026-05-06 01:37 | 36.89821 | -77.05853 | 21535 ft | 314 kts | 233° |
| 2026-05-06 01:38 | 36.88446 | -77.07964 | 21299 ft | 313 kts | 233° |
| 2026-05-06 01:38 | 36.87074 | -77.10068 | 21065 ft | 312 kts | 233° |
| 2026-05-06 01:38 | 36.85706 | -77.12165 | 20819 ft | 311 kts | 233° |
| 2026-05-06 01:38 | 36.84341 | -77.14255 | 20584 ft | 310 kts | 233° |
| 2026-05-06 01:39 | 36.82980 | -77.16339 | 20344 ft | 309 kts | 233° |
| 2026-05-06 01:39 | 36.81623 | -77.18415 | 20109 ft | 308 kts | 233° |
| 2026-05-06 01:39 | 36.80272 | -77.20482 | 19876 ft | 307 kts | 233° |
| 2026-05-06 01:39 | 36.78918 | -77.22537 | 19638 ft | 306 kts | 232° |
| 2026-05-06 01:40 | 36.77554 | -77.24567 | 19380 ft | 304 kts | 232° |
| 2026-05-06 01:40 | 36.76197 | -77.26589 | 19158 ft | 304 kts | 232° |
| 2026-05-06 01:40 | 36.74843 | -77.28606 | 18935 ft | 303 kts | 232° |
| 2026-05-06 01:40 | 36.73491 | -77.30619 | 18706 ft | 302 kts | 232° |
| 2026-05-06 01:41 | 36.72147 | -77.32620 | 18482 ft | 301 kts | 232° |
| 2026-05-06 01:41 | 36.70483 | -77.35096 | 18173 ft | 299 kts | 231° |
| 2026-05-06 01:41 | 36.69150 | -77.37079 | 17930 ft | 298 kts | 232° |
| 2026-05-06 01:41 | 36.67818 | -77.39059 | 17674 ft | 297 kts | 231° |
| 2026-05-06 01:42 | 36.66493 | -77.41026 | 17433 ft | 295 kts | 231° |
| 2026-05-06 01:42 | 36.65174 | -77.42983 | 17200 ft | 295 kts | 231° |
| 2026-05-06 01:42 | 36.63862 | -77.44931 | 16972 ft | 294 kts | 231° |
| 2026-05-06 01:42 | 36.62551 | -77.46874 | 16750 ft | 293 kts | 231° |
| 2026-05-06 01:43 | 36.61243 | -77.48813 | 16532 ft | 292 kts | 231° |
| 2026-05-06 01:43 | 36.59940 | -77.50741 | 16300 ft | 291 kts | 231° |
| 2026-05-06 01:43 | 36.58641 | -77.52664 | 16078 ft | 290 kts | 231° |
| 2026-05-06 01:43 | 36.57347 | -77.54579 | 15856 ft | 289 kts | 231° |
| 2026-05-06 01:44 | 36.56057 | -77.56486 | 15638 ft | 288 kts | 231° |
| 2026-05-06 01:44 | 36.54784 | -77.58366 | 15555 ft | 278 kts | 231° |
| 2026-05-06 01:44 | 36.53565 | -77.60166 | 15509 ft | 267 kts | 231° |
| 2026-05-06 01:44 | 36.52367 | -77.61935 | 15443 ft | 273 kts | 231° |
| 2026-05-06 01:45 | 36.51121 | -77.63772 | 15349 ft | 281 kts | 231° |
| 2026-05-06 01:45 | 36.49850 | -77.65647 | 15284 ft | 285 kts | 231° |
| 2026-05-06 01:45 | 36.49002 | -77.66896 | 15245 ft | 286 kts | 231° |
| 2026-05-06 01:45 | 36.47715 | -77.68792 | 15178 ft | 287 kts | 231° |
| 2026-05-06 01:46 | 36.46430 | -77.70683 | 15116 ft | 286 kts | 231° |
| 2026-05-06 01:46 | 36.45145 | -77.72573 | 15051 ft | 286 kts | 231° |
| 2026-05-06 01:46 | 36.43861 | -77.74460 | 14985 ft | 286 kts | 231° |
| 2026-05-06 01:46 | 36.42577 | -77.76348 | 14923 ft | 286 kts | 231° |
| 2026-05-06 01:47 | 36.41295 | -77.78230 | 14866 ft | 286 kts | 231° |
| 2026-05-06 01:47 | 36.40014 | -77.80112 | 14806 ft | 285 kts | 231° |
| 2026-05-06 01:47 | 36.38735 | -77.81988 | 14744 ft | 285 kts | 231° |
| 2026-05-06 01:47 | 36.37454 | -77.83866 | 14681 ft | 285 kts | 231° |
| 2026-05-06 01:48 | 36.36176 | -77.85740 | 14630 ft | 284 kts | 231° |
| 2026-05-06 01:48 | 36.34897 | -77.87612 | 14568 ft | 284 kts | 231° |
| 2026-05-06 01:48 | 36.33622 | -77.89478 | 14512 ft | 284 kts | 231° |
| 2026-05-06 01:48 | 36.32345 | -77.91347 | 14453 ft | 284 kts | 231° |
| 2026-05-06 01:49 | 36.31071 | -77.93210 | 14397 ft | 283 kts | 231° |
| 2026-05-06 01:49 | 36.29813 | -77.95049 | 14338 ft | 283 kts | 231° |
| 2026-05-06 01:49 | 36.28538 | -77.96911 | 14287 ft | 283 kts | 231° |
| 2026-05-06 01:49 | 36.27265 | -77.98770 | 14224 ft | 283 kts | 231° |
| 2026-05-06 01:50 | 36.25992 | -78.00628 | 14043 ft | 283 kts | 231° |
| 2026-05-06 01:50 | 36.24723 | -78.02479 | 13775 ft | 281 kts | 231° |
| 2026-05-06 01:50 | 36.23469 | -78.04321 | 13457 ft | 278 kts | 234° |
| 2026-05-06 01:50 | 36.22537 | -78.06391 | 13123 ft | 274 kts | 246° |
| 2026-05-06 01:51 | 36.21754 | -78.08523 | 12840 ft | 271 kts | 245° |
| 2026-05-06 01:51 | 36.20980 | -78.10631 | 12560 ft | 267 kts | 247° |
| 2026-05-06 01:51 | 36.20270 | -78.12747 | 12239 ft | 266 kts | 248° |
| 2026-05-06 01:51 | 36.19567 | -78.14853 | 11959 ft | 263 kts | 247° |
| 2026-05-06 01:52 | 36.18872 | -78.16924 | 11691 ft | 259 kts | 247° |
| 2026-05-06 01:52 | 36.18180 | -78.18980 | 11425 ft | 260 kts | 247° |
| 2026-05-06 01:52 | 36.17476 | -78.21071 | 11139 ft | 266 kts | 246° |
| 2026-05-06 01:52 | 36.16759 | -78.23198 | 10852 ft | 269 kts | 246° |
| 2026-05-06 01:53 | 36.16037 | -78.25333 | 10568 ft | 269 kts | 246° |
| 2026-05-06 01:53 | 36.15315 | -78.27472 | 10321 ft | 268 kts | 246° |
| 2026-05-06 01:53 | 36.14748 | -78.29696 | 9728 ft | 278 kts | 256° |
| 2026-05-06 01:53 | 36.14339 | -78.32094 | 8992 ft | 291 kts | 256° |
| 2026-05-06 01:54 | 36.13906 | -78.34575 | 8321 ft | 299 kts | 256° |
| 2026-05-06 01:54 | 36.13455 | -78.37128 | 7655 ft | 307 kts | 255° |
| 2026-05-06 01:54 | 36.12991 | -78.39729 | 6975 ft | 314 kts | 255° |
| 2026-05-06 01:54 | 36.12522 | -78.42351 | 6276 ft | 309 kts | 255° |
| 2026-05-06 01:55 | 36.11747 | -78.44738 | 5856 ft | 291 kts | 234° |
| 2026-05-06 01:55 | 36.10377 | -78.46465 | 5562 ft | 274 kts | 220° |
| 2026-05-06 01:55 | 36.09141 | -78.48172 | 5187 ft | 262 kts | 235° |
| 2026-05-06 01:55 | 36.08140 | -78.50001 | 4851 ft | 252 kts | 234° |
| 2026-05-06 01:56 | 36.07167 | -78.51745 | 4567 ft | 239 kts | 234° |
| 2026-05-06 01:56 | 36.06259 | -78.53358 | 4436 ft | 220 kts | 233° |
| 2026-05-06 01:56 | 36.05416 | -78.54848 | 4294 ft | 204 kts | 233° |
| 2026-05-06 01:56 | 36.04605 | -78.56272 | 4167 ft | 202 kts | 232° |
| 2026-05-06 01:57 | 36.03801 | -78.57682 | 4039 ft | 200 kts | 232° |
| 2026-05-06 01:57 | 36.02998 | -78.59087 | 3906 ft | 200 kts | 232° |
| 2026-05-06 01:57 | 36.02196 | -78.60489 | 3754 ft | 199 kts | 232° |
| 2026-05-06 01:57 | 36.01398 | -78.61882 | 3618 ft | 199 kts | 232° |
| 2026-05-06 01:58 | 36.00601 | -78.63270 | 3477 ft | 196 kts | 232° |
| 2026-05-06 01:58 | 35.99819 | -78.64621 | 3257 ft | 192 kts | 230° |
| 2026-05-06 01:58 | 35.98969 | -78.65867 | 3020 ft | 187 kts | 225° |
| 2026-05-06 01:58 | 35.98102 | -78.66992 | 2804 ft | 173 kts | 222° |
| 2026-05-06 01:59 | 35.97285 | -78.68008 | 2581 ft | 161 kts | 221° |
| 2026-05-06 01:59 | 35.96524 | -78.68950 | 2368 ft | 150 kts | 221° |
| 2026-05-06 01:59 | 35.95806 | -78.69845 | 2205 ft | 141 kts | 218° |
| 2026-05-06 01:59 | 35.95159 | -78.70653 | 2053 ft | 127 kts | 217° |
| 2026-05-06 02:00 | 35.94541 | -78.71414 | 1892 ft | 125 kts | 217° |
| 2026-05-06 02:00 | 35.93930 | -78.72170 | 1711 ft | 124 kts | 218° |
| 2026-05-06 02:00 | 35.93313 | -78.72931 | 1525 ft | 127 kts | 219° |
| 2026-05-06 02:00 | 35.92680 | -78.73720 | 1360 ft | 132 kts | 219° |
| 2026-05-06 02:01 | 35.92019 | -78.74539 | 1203 ft | 138 kts | 220° |
| 2026-05-06 02:01 | 35.91356 | -78.75361 | 994 ft | 137 kts | 218° |
| 2026-05-06 02:01 | 35.90673 | -78.76209 | 831 ft | 143 kts | 218° |
| 2026-05-06 02:01 | 35.89958 | -78.77084 | 643 ft | 145 kts | 221° |
| 2026-05-06 02:02 | 35.89260 | -78.77968 | 439 ft | 141 kts | 214° |
| 2026-05-06 02:02 | 35.88631 | -78.78718 | 426 ft | 103 kts | 226° |
| 2026-05-06 02:02 | 35.88276 | -78.79167 | 428 ft | 62 kts | 225° |
| 2026-05-06 02:02 | 35.88048 | -78.79447 | 423 ft | 23 kts | 218° |
| 2026-05-06 02:03 | 35.87949 | -78.79463 | 426 ft | 11 kts | 148° |
| 2026-05-06 02:03 | 35.87934 | -78.79396 | 429 ft | 7 kts | 86° |
| 2026-05-06 02:03 | 35.87913 | -78.79344 | 425 ft | 7 kts | 167° |
| 2026-05-06 02:03 | 35.87868 | -78.79330 | 418 ft | 6 kts | 149° |
| 2026-05-06 02:04 | 35.87855 | -78.79318 | 421 ft | 0 kts | 141° |
| 2026-05-06 02:04 | 35.87847 | -78.79310 | 429 ft | 3 kts | 140° |
| 2026-05-06 02:04 | 35.87845 | -78.79307 | 419 ft | 0 kts | 140° |
| 2026-05-06 02:05 | 35.87845 | -78.79308 | 419 ft | 0 kts | 140° |
| 2026-05-06 02:05 | 35.87845 | -78.79307 | 419 ft | 0 kts | 140° |